Time;durP1;ratioP1;P1;durP2;ratioP2;P2;SDS_P1;SDS_P2;PMS_P1;PMS_P2;Temp;Humidity;BMP_temperature;BMP_pressure;BME280_temperature;BME280_humidity;BME280_pressure;Samples;Min_cycle;Max_cycle;Signal;HPM_P1;HPM_P2
2021/10/07 00:00:06;;;;;;;24.00;17.70;;;;;;;;;;5094668;28;20557;-78
2021/10/07 00:02:34;;;;;;;25.60;18.30;;;;;;;;;;5095594;28;20442;-78
2021/10/07 00:05:01;;;;;;;25.63;18.17;;;;;;;;;;5094888;28;20434;-79
2021/10/07 00:07:28;;;;;;;29.80;18.63;;;;;;;;;;5094525;28;20439;-78
2021/10/07 00:09:56;;;;;;;25.40;16.77;;;;;;;;;;5094376;28;20929;-78
2021/10/07 00:12:23;;;;;;;24.20;18.40;;;;;;;;;;5094724;28;20526;-78
2021/10/07 00:14:50;;;;;;;22.40;16.90;;;;;;;;;;5094339;28;20530;-78
2021/10/07 00:17:17;;;;;;;21.43;15.97;;;;;;;;;;5094353;28;20453;-78
2021/10/07 00:19:46;;;;;;;21.80;15.90;;;;;;;;;;5094579;28;20469;-78
2021/10/07 00:22:13;;;;;;;21.90;15.50;;;;;;;;;;5094260;28;20447;-78
2021/10/07 00:24:40;;;;;;;20.53;15.20;;;;;;;;;;5094293;28;20937;-79
2021/10/07 00:27:07;;;;;;;27.03;16.40;;;;;;;;;;5094928;28;20478;-79
2021/10/07 00:29:39;;;;;;;22.27;15.63;;;;;;;;;;5094357;28;20542;-79
2021/10/07 00:32:09;;;;;;;18.83;16.23;;;;;;;;;;5094065;28;20467;-78
2021/10/07 00:39:02;;;;;;;19.33;15.10;;;;;;;;;;5088659;28;20463;-77
2021/10/07 00:40:14;;;;;;;18.63;15.50;;;;;;;;;;5093952;28;20424;-78
2021/10/07 00:42:41;;;;;;;22.27;17.73;;;;;;;;;;5094228;28;20520;-78
2021/10/07 00:45:09;;;;;;;21.87;17.00;;;;;;;;;;5093805;28;20439;-78
2021/10/07 00:47:36;;;;;;;24.33;17.23;;;;;;;;;;5093888;28;20806;-78
2021/10/07 00:50:04;;;;;;;23.77;18.07;;;;;;;;;;5094412;28;20821;-78
2021/10/07 00:52:32;;;;;;;21.00;16.33;;;;;;;;;;5093708;28;20439;-77
2021/10/07 00:54:59;;;;;;;22.33;16.57;;;;;;;;;;5093728;28;20439;-77
2021/10/07 00:57:27;;;;;;;25.80;16.00;;;;;;;;;;5093725;28;20436;-77
2021/10/07 00:59:54;;;;;;;20.77;15.80;;;;;;;;;;5093890;28;20447;-76
2021/10/07 01:02:21;;;;;;;22.17;17.80;;;;;;;;;;5093860;28;20432;-76
2021/10/07 01:04:49;;;;;;;23.03;17.40;;;;;;;;;;5093589;28;20995;-76
2021/10/07 01:07:17;;;;;;;18.70;15.20;;;;;;;;;;5093959;28;20462;-77
2021/10/07 01:09:45;;;;;;;19.07;17.00;;;;;;;;;;5093931;28;20818;-77
2021/10/07 01:12:12;;;;;;;22.53;17.10;;;;;;;;;;5094625;28;20487;-76
2021/10/07 01:14:44;;;;;;;21.13;16.43;;;;;;;;;;5093881;28;20440;-77
2021/10/07 01:17:13;;;;;;;22.37;17.37;;;;;;;;;;5094154;28;20424;-77
2021/10/07 01:19:42;;;;;;;20.90;16.83;;;;;;;;;;5093828;28;20435;-77
2021/10/07 01:22:09;;;;;;;31.83;18.93;;;;;;;;;;5093567;28;20506;-78
2021/10/07 01:24:36;;;;;;;21.20;18.10;;;;;;;;;;5093733;28;20485;-77
2021/10/07 01:27:04;;;;;;;30.97;19.50;;;;;;;;;;5093739;28;20467;-77
2021/10/07 01:29:31;;;;;;;22.23;17.83;;;;;;;;;;5093812;28;20439;-77
2021/10/07 01:31:59;;;;;;;26.03;18.50;;;;;;;;;;5093802;28;20475;-76
2021/10/07 01:34:27;;;;;;;25.63;19.00;;;;;;;;;;5093656;28;20438;-76
2021/10/07 01:36:56;;;;;;;26.03;18.57;;;;;;;;;;5093303;28;20456;-76
2021/10/07 01:39:23;;;;;;;27.60;19.83;;;;;;;;;;5093618;28;20471;-76
2021/10/07 01:41:51;;;;;;;35.13;20.40;;;;;;;;;;5093697;28;20463;-76
2021/10/07 01:44:18;;;;;;;27.30;18.87;;;;;;;;;;5093533;28;20796;-75
2021/10/07 01:46:46;;;;;;;27.70;19.50;;;;;;;;;;5093189;28;20442;-76
2021/10/07 01:49:13;;;;;;;26.43;19.10;;;;;;;;;;5093166;28;20931;-76
2021/10/07 01:51:40;;;;;;;34.97;19.00;;;;;;;;;;5093474;28;20568;-77
2021/10/07 01:54:09;;;;;;;29.87;20.13;;;;;;;;;;5093821;28;20967;-76
2021/10/07 01:56:36;;;;;;;24.37;19.90;;;;;;;;;;5093557;28;20452;-76
2021/10/07 01:59:05;;;;;;;24.97;18.50;;;;;;;;;;5093426;28;20447;-76
2021/10/07 02:01:32;;;;;;;32.83;19.97;;;;;;;;;;5093750;28;20990;-76
2021/10/07 02:03:59;;;;;;;28.33;19.40;;;;;;;;;;5093336;28;20439;-76
2021/10/07 02:06:27;;;;;;;26.30;19.90;;;;;;;;;;5093033;28;20435;-76
2021/10/07 02:08:54;;;;;;;25.70;19.00;;;;;;;;;;5094718;28;20928;-79
2021/10/07 02:11:22;;;;;;;25.00;18.60;;;;;;;;;;5097364;28;20471;-76
2021/10/07 02:13:50;;;;;;;29.70;18.00;;;;;;;;;;5096884;28;20526;-77
2021/10/07 02:16:17;;;;;;;28.37;18.80;;;;;;;;;;5097535;28;20447;-77
2021/10/07 02:18:44;;;;;;;23.23;18.70;;;;;;;;;;5097183;28;20841;-76
2021/10/07 02:21:11;;;;;;;27.30;19.37;;;;;;;;;;5097025;28;20453;-75
2021/10/07 02:23:38;;;;;;;25.93;18.87;;;;;;;;;;5097004;28;20445;-76
2021/10/07 02:26:06;;;;;;;27.33;21.43;;;;;;;;;;5096894;28;20986;-76
2021/10/07 02:28:34;;;;;;;27.50;20.10;;;;;;;;;;5096918;28;20470;-76
2021/10/07 02:31:01;;;;;;;24.83;19.53;;;;;;;;;;5096505;28;20964;-77
2021/10/07 02:33:28;;;;;;;30.40;20.63;;;;;;;;;;5096576;28;20467;-76
2021/10/07 02:35:56;;;;;;;31.03;19.23;;;;;;;;;;5096761;28;20435;-76
2021/10/07 02:38:23;;;;;;;29.70;20.87;;;;;;;;;;5096883;28;20540;-76
2021/10/07 02:40:50;;;;;;;38.07;21.70;;;;;;;;;;5096436;28;20493;-76
2021/10/07 02:43:17;;;;;;;31.10;20.57;;;;;;;;;;5096603;28;20494;-76
2021/10/07 02:45:46;;;;;;;38.93;22.10;;;;;;;;;;5096783;28;20444;-77
2021/10/07 02:48:13;;;;;;;35.10;22.20;;;;;;;;;;5096216;28;20439;-77
2021/10/07 02:50:40;;;;;;;32.67;22.80;;;;;;;;;;5096424;28;20444;-77
2021/10/07 02:53:08;;;;;;;49.60;25.67;;;;;;;;;;5096426;28;20443;-76
2021/10/07 02:55:35;;;;;;;40.70;24.80;;;;;;;;;;5096721;28;20435;-76
2021/10/07 02:58:02;;;;;;;42.40;25.33;;;;;;;;;;5096354;28;20446;-76
2021/10/07 03:00:29;;;;;;;36.77;23.90;;;;;;;;;;5096426;28;20445;-76
2021/10/07 03:02:58;;;;;;;42.73;24.23;;;;;;;;;;5096786;28;20439;-76
2021/10/07 03:05:25;;;;;;;38.83;23.50;;;;;;;;;;5095891;28;20485;-76
2021/10/07 03:07:52;;;;;;;41.23;24.00;;;;;;;;;;5096208;28;20447;-77
2021/10/07 03:10:20;;;;;;;36.10;21.80;;;;;;;;;;5096073;28;20536;-76
2021/10/07 03:12:48;;;;;;;46.50;24.20;;;;;;;;;;5096001;28;20478;-76
2021/10/07 03:15:15;;;;;;;47.77;24.90;;;;;;;;;;5096016;28;20462;-76
2021/10/07 03:17:42;;;;;;;57.97;27.10;;;;;;;;;;5096264;28;20440;-76
2021/10/07 03:20:11;;;;;;;43.07;24.17;;;;;;;;;;5095886;28;20435;-78
2021/10/07 03:22:40;;;;;;;56.13;28.53;;;;;;;;;;5095968;28;20807;-78
2021/10/07 03:25:07;;;;;;;52.10;27.40;;;;;;;;;;5095635;28;20439;-78
2021/10/07 03:27:35;;;;;;;47.03;26.00;;;;;;;;;;5095557;28;20934;-77
2021/10/07 03:30:02;;;;;;;44.83;27.77;;;;;;;;;;5095750;28;20446;-77
2021/10/07 03:32:29;;;;;;;49.63;27.43;;;;;;;;;;5095592;28;20475;-78
2021/10/07 03:34:56;;;;;;;43.23;26.63;;;;;;;;;;5095660;28;20436;-78
2021/10/07 03:37:25;;;;;;;48.50;27.73;;;;;;;;;;5095610;28;20442;-78
2021/10/07 03:39:52;;;;;;;43.50;26.33;;;;;;;;;;5095236;28;20440;-78
2021/10/07 03:42:19;;;;;;;51.27;25.70;;;;;;;;;;5095579;28;20477;-77
2021/10/07 03:44:46;;;;;;;49.07;29.60;;;;;;;;;;5095461;28;20443;-77
2021/10/07 03:47:14;;;;;;;56.33;29.53;;;;;;;;;;5095579;28;20439;-77
2021/10/07 03:49:41;;;;;;;44.03;26.50;;;;;;;;;;5095325;28;20530;-77
2021/10/07 03:52:08;;;;;;;49.10;26.53;;;;;;;;;;5095237;28;20483;-77
2021/10/07 03:54:36;;;;;;;45.57;26.53;;;;;;;;;;5094928;28;20483;-79
2021/10/07 03:57:04;;;;;;;50.13;25.50;;;;;;;;;;5095470;28;20451;-78
2021/10/07 03:59:31;;;;;;;67.37;27.27;;;;;;;;;;5094815;28;20944;-77
2021/10/07 04:01:58;;;;;;;48.30;26.20;;;;;;;;;;5094754;28;20929;-77
2021/10/07 04:04:25;;;;;;;43.67;27.80;;;;;;;;;;5095043;28;20438;-77
2021/10/07 04:06:52;;;;;;;54.30;28.40;;;;;;;;;;5095010;28;20444;-77
2021/10/07 04:09:20;;;;;;;50.27;27.00;;;;;;;;;;5094805;28;20959;-76
2021/10/07 04:11:48;;;;;;;40.50;23.77;;;;;;;;;;5094575;28;20979;-77
2021/10/07 04:14:15;;;;;;;55.93;27.10;;;;;;;;;;5094881;28;20475;-79
2021/10/07 04:16:43;;;;;;;54.30;28.10;;;;;;;;;;5094787;28;20443;-78
2021/10/07 04:19:10;;;;;;;50.77;27.50;;;;;;;;;;5094791;28;20523;-77
2021/10/07 04:21:39;;;;;;;42.10;25.90;;;;;;;;;;5094400;28;20447;-76
2021/10/07 04:24:06;;;;;;;56.70;28.07;;;;;;;;;;5094614;28;20462;-77
2021/10/07 04:26:33;;;;;;;44.20;27.87;;;;;;;;;;5094576;28;20984;-76
2021/10/07 04:29:02;;;;;;;51.53;27.10;;;;;;;;;;5094597;28;20462;-76
2021/10/07 04:31:29;;;;;;;49.70;26.03;;;;;;;;;;5092605;28;20476;-76
2021/10/07 04:33:56;;;;;;;53.80;28.97;;;;;;;;;;5093461;28;20455;-75
2021/10/07 04:36:23;;;;;;;54.50;29.63;;;;;;;;;;5093753;28;20439;-76
2021/10/07 04:38:50;;;;;;;56.23;26.80;;;;;;;;;;5093822;28;20442;-75
2021/10/07 04:41:18;;;;;;;55.00;27.20;;;;;;;;;;5093697;28;20439;-76
2021/10/07 04:43:45;;;;;;;67.07;28.47;;;;;;;;;;5093897;28;20516;-75
2021/10/07 04:46:18;;;;;;;59.23;28.63;;;;;;;;;;5093562;28;20440;-75
2021/10/07 04:48:45;;;;;;;66.37;30.63;;;;;;;;;;5094149;28;20432;-77
2021/10/07 04:51:12;;;;;;;66.20;30.70;;;;;;;;;;5093458;28;20931;-77
2021/10/07 04:53:39;;;;;;;65.30;31.27;;;;;;;;;;5093374;28;20438;-76
2021/10/07 04:56:07;;;;;;;98.20;32.60;;;;;;;;;;5093898;28;20441;-76
2021/10/07 04:58:34;;;;;;;74.00;32.23;;;;;;;;;;5093329;28;20451;-75
2021/10/07 05:01:01;;;;;;;75.37;30.03;;;;;;;;;;5093482;28;20523;-75
2021/10/07 05:03:30;;;;;;;76.03;31.63;;;;;;;;;;5093336;28;20452;-75
2021/10/07 05:05:57;;;;;;;64.80;26.50;;;;;;;;;;5093593;28;20446;-76
2021/10/07 05:08:24;;;;;;;93.87;29.57;;;;;;;;;;5093481;28;20450;-76
2021/10/07 05:10:54;;;;;;;96.00;32.70;;;;;;;;;;5093292;28;20443;-75
2021/10/07 05:13:21;;;;;;;120.07;30.90;;;;;;;;;;5093588;28;20867;-76
2021/10/07 05:15:48;;;;;;;78.83;29.83;;;;;;;;;;5093462;28;20802;-75
2021/10/07 05:18:16;;;;;;;100.47;30.87;;;;;;;;;;5093174;28;20943;-75
2021/10/07 05:20:45;;;;;;;69.40;32.17;;;;;;;;;;5093289;28;20501;-75
2021/10/07 05:23:13;;;;;;;89.17;32.23;;;;;;;;;;5093134;28;20924;-75
2021/10/07 05:25:40;;;;;;;80.07;28.70;;;;;;;;;;5092847;28;20518;-75
2021/10/07 05:28:07;;;;;;;76.53;31.77;;;;;;;;;;5093145;28;20806;-74
2021/10/07 05:30:34;;;;;;;67.53;31.63;;;;;;;;;;5093248;28;20443;-75
2021/10/07 05:33:02;;;;;;;77.10;31.10;;;;;;;;;;5093390;28;20482;-74
2021/10/07 05:35:29;;;;;;;63.57;30.37;;;;;;;;;;5093150;28;20452;-74
2021/10/07 05:37:59;;;;;;;60.47;30.17;;;;;;;;;;5092007;28;20440;-74
2021/10/07 05:40:26;;;;;;;60.67;27.87;;;;;;;;;;5093493;28;20436;-74
2021/10/07 05:42:53;;;;;;;58.70;26.33;;;;;;;;;;5095365;28;20443;-77
2021/10/07 05:45:20;;;;;;;68.87;30.17;;;;;;;;;;5097435;28;20447;-74
2021/10/07 05:47:47;;;;;;;66.43;29.93;;;;;;;;;;5097383;28;20443;-75
2021/10/07 05:50:15;;;;;;;65.33;29.67;;;;;;;;;;5097347;28;20443;-74
2021/10/07 05:52:42;;;;;;;65.17;30.10;;;;;;;;;;5097883;28;20479;-75
2021/10/07 05:55:11;;;;;;;51.23;26.60;;;;;;;;;;5097496;28;20450;-75
2021/10/07 05:57:38;;;;;;;51.20;25.40;;;;;;;;;;5097173;28;20944;-75
2021/10/07 06:00:06;;;;;;;59.90;31.70;;;;;;;;;;5097401;28;20435;-75
2021/10/07 06:02:36;;;;;;;59.53;29.83;;;;;;;;;;5097416;28;20473;-74
2021/10/07 06:05:03;;;;;;;60.60;28.77;;;;;;;;;;5097107;28;20450;-74
2021/10/07 06:07:30;;;;;;;70.77;30.63;;;;;;;;;;5097291;28;20439;-74
2021/10/07 06:09:57;;;;;;;64.90;28.47;;;;;;;;;;5097516;28;20531;-75
2021/10/07 06:12:26;;;;;;;65.90;29.50;;;;;;;;;;5096802;28;20475;-74
2021/10/07 06:15:03;;;;;;;87.27;31.70;;;;;;;;;;5097527;28;20434;-75
2021/10/07 06:17:34;;;;;;;59.23;29.23;;;;;;;;;;5097093;28;20427;-74
2021/10/07 06:20:05;;;;;;;62.93;30.20;;;;;;;;;;5097365;28;20450;-74
2021/10/07 06:22:32;;;;;;;66.90;30.50;;;;;;;;;;5096734;28;20435;-75
2021/10/07 06:24:59;;;;;;;65.80;29.07;;;;;;;;;;5096686;28;20803;-75
2021/10/07 06:27:28;;;;;;;78.60;33.20;;;;;;;;;;5097295;28;20438;-75
2021/10/07 06:29:58;;;;;;;83.67;30.50;;;;;;;;;;5096525;28;20944;-74
2021/10/07 06:32:25;;;;;;;76.70;32.53;;;;;;;;;;5096769;28;20475;-74
2021/10/07 06:34:52;;;;;;;62.40;29.60;;;;;;;;;;5096828;28;20488;-75
2021/10/07 06:37:19;;;;;;;59.20;30.30;;;;;;;;;;5096741;28;20444;-75
2021/10/07 06:39:46;;;;;;;69.60;29.40;;;;;;;;;;5096360;28;20946;-75
2021/10/07 06:42:16;;;;;;;73.57;31.40;;;;;;;;;;5097526;28;20443;-74
2021/10/07 06:44:46;;;;;;;61.53;28.53;;;;;;;;;;5096364;28;20428;-74
2021/10/07 06:47:14;;;;;;;71.33;31.10;;;;;;;;;;5096556;28;20439;-75
2021/10/07 06:49:43;;;;;;;65.77;29.73;;;;;;;;;;5096192;28;20449;-75
2021/10/07 06:52:13;;;;;;;64.10;29.57;;;;;;;;;;5096378;28;20439;-74
2021/10/07 06:54:41;;;;;;;55.13;27.40;;;;;;;;;;5096027;28;20460;-74
2021/10/07 06:57:08;;;;;;;61.03;28.87;;;;;;;;;;5096034;28;20446;-74
2021/10/07 06:59:35;;;;;;;51.87;27.10;;;;;;;;;;5096027;28;20450;-74
2021/10/07 07:02:04;;;;;;;42.57;24.23;;;;;;;;;;5095997;28;20436;-75
2021/10/07 07:04:31;;;;;;;51.90;28.80;;;;;;;;;;5096383;28;20442;-74
2021/10/07 07:06:58;;;;;;;46.00;27.00;;;;;;;;;;5096055;28;20936;-74
2021/10/07 07:09:27;;;;;;;46.20;26.43;;;;;;;;;;5096183;28;20453;-75
2021/10/07 07:11:54;;;;;;;47.23;25.10;;;;;;;;;;5095844;28;20442;-74
2021/10/07 07:14:22;;;;;;;48.30;26.80;;;;;;;;;;5095684;28;20478;-74
2021/10/07 07:16:49;;;;;;;45.73;26.10;;;;;;;;;;5096043;28;20469;-74
2021/10/07 07:19:18;;;;;;;45.30;27.60;;;;;;;;;;5095950;28;20802;-74
2021/10/07 07:21:45;;;;;;;47.97;25.90;;;;;;;;;;5095946;28;20438;-74
2021/10/07 07:24:12;;;;;;;51.37;27.40;;;;;;;;;;5095563;28;21015;-75
2021/10/07 07:26:40;;;;;;;44.03;23.80;;;;;;;;;;5095875;28;20565;-74
2021/10/07 07:29:07;;;;;;;47.27;26.07;;;;;;;;;;5095473;28;20439;-74
2021/10/07 07:31:34;;;;;;;50.20;26.57;;;;;;;;;;5095441;28;20435;-74
2021/10/07 07:34:02;;;;;;;46.47;26.90;;;;;;;;;;5095627;28;20972;-74
2021/10/07 07:36:30;;;;;;;48.50;28.90;;;;;;;;;;5095648;28;20442;-74
2021/10/07 07:38:59;;;;;;;45.03;23.83;;;;;;;;;;5095609;28;20439;-74
2021/10/07 07:41:29;;;;;;;59.50;34.13;;;;;;;;;;5095173;28;20446;-74
2021/10/07 07:43:56;;;;;;;38.07;24.00;;;;;;;;;;5095105;28;20512;-75
2021/10/07 07:46:23;;;;;;;35.40;22.23;;;;;;;;;;5095420;28;20436;-75
2021/10/07 07:48:50;;;;;;;38.43;22.77;;;;;;;;;;5095407;28;20432;-74
2021/10/07 07:51:18;;;;;;;37.40;22.43;;;;;;;;;;5095039;28;20442;-74
2021/10/07 07:53:46;;;;;;;39.40;22.27;;;;;;;;;;5095555;28;20475;-74
2021/10/07 07:56:15;;;;;;;35.73;22.23;;;;;;;;;;5095470;28;20450;-74
2021/10/07 07:58:42;;;;;;;39.30;24.53;;;;;;;;;;5095102;28;20482;-74
2021/10/07 08:01:09;;;;;;;42.73;24.80;;;;;;;;;;5094733;28;21001;-74
2021/10/07 08:03:36;;;;;;;35.50;23.17;;;;;;;;;;5095077;28;20539;-74
2021/10/07 08:06:04;;;;;;;37.93;23.30;;;;;;;;;;5093627;28;20523;-74
2021/10/07 08:08:31;;;;;;;46.37;23.40;;;;;;;;;;5095162;28;20442;-76
2021/10/07 08:10:59;;;;;;;34.40;21.67;;;;;;;;;;5094595;28;20479;-74
2021/10/07 08:13:27;;;;;;;33.40;21.30;;;;;;;;;;5094492;28;20571;-75
2021/10/07 08:15:54;;;;;;;28.00;19.00;;;;;;;;;;5094892;28;20443;-74
2021/10/07 08:18:21;;;;;;;31.30;21.00;;;;;;;;;;5094695;28;20535;-74
2021/10/07 08:20:51;;;;;;;28.80;19.73;;;;;;;;;;5094365;28;20440;-74
2021/10/07 08:23:22;;;;;;;35.20;20.60;;;;;;;;;;5094954;28;20444;-74
2021/10/07 08:25:49;;;;;;;30.70;20.63;;;;;;;;;;5094774;28;20487;-74
2021/10/07 08:28:17;;;;;;;31.33;20.53;;;;;;;;;;5094316;28;20921;-74
2021/10/07 08:30:45;;;;;;;26.40;20.00;;;;;;;;;;5094555;28;20436;-74
2021/10/07 08:33:12;;;;;;;27.47;18.80;;;;;;;;;;5094452;28;20825;-75
2021/10/07 08:35:39;;;;;;;28.20;19.70;;;;;;;;;;5094456;28;20440;-74
2021/10/07 08:38:08;;;;;;;23.63;17.97;;;;;;;;;;5094064;28;20483;-75
2021/10/07 08:40:35;;;;;;;26.23;19.33;;;;;;;;;;5094346;28;20863;-76
2021/10/07 08:43:02;;;;;;;26.37;18.53;;;;;;;;;;5094364;28;20448;-75
2021/10/07 08:45:31;;;;;;;25.70;19.70;;;;;;;;;;5094320;28;20444;-75
2021/10/07 08:47:58;;;;;;;27.97;18.43;;;;;;;;;;5094394;28;20789;-75
2021/10/07 08:50:26;;;;;;;26.67;17.87;;;;;;;;;;5093969;28;20505;-74
2021/10/07 08:52:53;;;;;;;24.07;17.30;;;;;;;;;;5094616;28;20563;-74
2021/10/07 08:55:20;;;;;;;26.43;17.10;;;;;;;;;;5094037;28;20812;-74
2021/10/07 08:57:48;;;;;;;28.17;19.00;;;;;;;;;;5094187;28;20541;-74
2021/10/07 09:00:17;;;;;;;29.27;18.37;;;;;;;;;;5093778;28;20444;-76
2021/10/07 09:02:46;;;;;;;26.33;18.60;;;;;;;;;;5094531;28;20473;-74
2021/10/07 09:05:14;;;;;;;27.83;18.30;;;;;;;;;;5094012;28;20447;-75
2021/10/07 09:07:54;;;;;;;26.63;18.33;;;;;;;;;;5093950;28;20518;-75
2021/10/07 09:10:22;;;;;;;30.80;20.80;;;;;;;;;;5093610;28;20529;-74
2021/10/07 09:13:05;;;;;;;29.17;19.57;;;;;;;;;;5093514;28;20445;-74
2021/10/07 09:15:33;;;;;;;30.20;19.43;;;;;;;;;;5093583;28;20435;-74
2021/10/07 09:18:06;;;;;;;28.10;17.87;;;;;;;;;;5093143;28;20448;-74
2021/10/07 09:20:34;;;;;;;25.63;17.70;;;;;;;;;;5093885;28;20464;-75
2021/10/07 09:23:05;;;;;;;24.83;17.70;;;;;;;;;;5093952;28;20437;-75
2021/10/07 09:25:33;;;;;;;24.20;16.37;;;;;;;;;;5093839;28;20820;-74
2021/10/07 09:28:04;;;;;;;30.03;16.63;;;;;;;;;;5093719;28;20510;-75
2021/10/07 09:30:31;;;;;;;27.03;17.60;;;;;;;;;;5093392;28;20448;-75
2021/10/07 09:33:02;;;;;;;35.87;19.57;;;;;;;;;;5093269;28;20444;-75
2021/10/07 09:35:37;;;;;;;28.07;17.37;;;;;;;;;;5093384;28;20433;-74
2021/10/07 09:38:06;;;;;;;29.07;18.60;;;;;;;;;;5093354;28;20428;-75
2021/10/07 09:40:33;;;;;;;33.50;20.80;;;;;;;;;;5093271;28;20444;-74
2021/10/07 09:43:01;;;;;;;25.70;18.30;;;;;;;;;;5093884;28;20448;-75
2021/10/07 09:45:29;;;;;;;29.23;18.90;;;;;;;;;;5093517;28;20445;-74
2021/10/07 09:47:58;;;;;;;28.33;19.27;;;;;;;;;;5093183;28;20945;-74
2021/10/07 09:50:26;;;;;;;27.73;18.23;;;;;;;;;;5093166;28;20445;-74
2021/10/07 09:52:58;;;;;;;34.57;19.47;;;;;;;;;;5093376;28;20446;-75
2021/10/07 09:55:31;;;;;;;57.70;35.03;;;;;;;;;;5093103;28;20455;-75
2021/10/07 09:58:00;;;;;;;28.50;20.53;;;;;;;;;;5093520;28;20433;-75
2021/10/07 10:00:29;;;;;;;30.23;20.57;;;;;;;;;;5093453;28;20533;-74
2021/10/07 10:02:57;;;;;;;28.63;20.40;;;;;;;;;;5093419;28;20443;-75
2021/10/07 10:05:24;;;;;;;29.73;18.17;;;;;;;;;;5093387;28;20529;-75
2021/10/07 10:07:52;;;;;;;28.07;18.47;;;;;;;;;;5093340;28;20441;-74
2021/10/07 10:10:21;;;;;;;30.40;21.77;;;;;;;;;;5093618;28;20446;-77
2021/10/07 10:12:48;;;;;;;28.60;19.80;;;;;;;;;;5092918;28;20441;-75
2021/10/07 10:15:16;;;;;;;27.00;18.37;;;;;;;;;;5092940;28;20488;-75
2021/10/07 10:17:43;;;;;;;26.07;16.43;;;;;;;;;;5092954;28;20505;-74
2021/10/07 10:20:13;;;;;;;24.57;16.33;;;;;;;;;;5093267;28;20451;-74
2021/10/07 10:22:42;;;;;;;23.33;16.60;;;;;;;;;;5093803;28;20990;-74
2021/10/07 10:25:10;;;;;;;25.17;16.13;;;;;;;;;;5093110;28;20457;-74
2021/10/07 10:27:51;;;;;;;23.10;15.77;;;;;;;;;;5093312;28;20433;-74
2021/10/07 10:30:19;;;;;;;21.93;16.10;;;;;;;;;;5095634;28;20433;-74
2021/10/07 10:32:47;;;;;;;23.40;15.93;;;;;;;;;;5096561;28;20453;-74
2021/10/07 10:35:29;;;;;;;22.57;16.80;;;;;;;;;;5096918;28;20820;-74
2021/10/07 10:37:57;;;;;;;19.83;14.80;;;;;;;;;;5096846;28;20437;-74
2021/10/07 10:40:24;;;;;;;22.23;16.30;;;;;;;;;;5096669;28;20452;-74
2021/10/07 10:43:19;;;;;;;27.97;17.27;;;;;;;;;;5097048;28;20431;-74
2021/10/07 10:45:47;;;;;;;20.20;14.97;;;;;;;;;;5096391;28;20433;-74
2021/10/07 10:48:14;;;;;;;23.00;16.47;;;;;;;;;;5096621;28;20442;-74
2021/10/07 10:50:41;;;;;;;24.60;15.67;;;;;;;;;;5096251;28;20437;-74
2021/10/07 10:53:22;;;;;;;19.23;14.80;;;;;;;;;;5096876;28;20445;-74
2021/10/07 10:55:51;;;;;;;21.77;16.07;;;;;;;;;;5096497;28;20456;-74
2021/10/07 10:58:21;;;;;;;24.07;15.57;;;;;;;;;;5096434;28;20801;-74
2021/10/07 11:00:48;;;;;;;21.90;16.43;;;;;;;;;;5096601;28;20566;-74
2021/10/07 11:03:22;;;;;;;21.30;14.80;;;;;;;;;;5096056;28;20500;-74
2021/10/07 11:05:57;;;;;;;26.00;17.00;;;;;;;;;;5096285;28;20486;-74
2021/10/07 11:08:25;;;;;;;22.60;15.30;;;;;;;;;;5096212;28;20444;-74
2021/10/07 11:10:53;;;;;;;26.33;15.87;;;;;;;;;;5095833;28;20938;-74
2021/10/07 11:13:23;;;;;;;23.20;15.70;;;;;;;;;;5096547;28;20456;-74
2021/10/07 11:15:53;;;;;;;20.50;14.90;;;;;;;;;;5097115;28;20540;-74
2021/10/07 11:18:20;;;;;;;23.97;16.53;;;;;;;;;;5095734;28;20429;-75
2021/10/07 11:20:48;;;;;;;24.17;15.70;;;;;;;;;;5096138;28;20441;-74
2021/10/07 11:23:16;;;;;;;22.10;15.60;;;;;;;;;;5095633;28;20441;-74
2021/10/07 11:25:44;;;;;;;22.30;16.23;;;;;;;;;;5095670;28;20519;-74
2021/10/07 11:28:12;;;;;;;27.97;15.70;;;;;;;;;;5095511;28;20444;-74
2021/10/07 11:30:42;;;;;;;20.00;14.70;;;;;;;;;;5095455;28;20458;-75
2021/10/07 11:33:13;;;;;;;22.60;15.53;;;;;;;;;;5095503;28;20433;-74
2021/10/07 11:35:43;;;;;;;22.83;16.07;;;;;;;;;;5096349;28;20470;-75
2021/10/07 11:38:12;;;;;;;22.97;15.23;;;;;;;;;;5096321;28;20481;-75
2021/10/07 11:40:43;;;;;;;22.27;15.20;;;;;;;;;;5095302;28;20541;-74
2021/10/07 11:43:11;;;;;;;25.47;14.80;;;;;;;;;;5095783;28;20853;-75
2021/10/07 11:45:40;;;;;;;27.43;16.47;;;;;;;;;;5095059;28;20450;-75
2021/10/07 11:48:09;;;;;;;24.77;15.80;;;;;;;;;;5095390;28;20808;-77
2021/10/07 11:50:38;;;;;;;25.93;17.00;;;;;;;;;;5094981;28;20528;-75
2021/10/07 11:53:07;;;;;;;27.03;15.83;;;;;;;;;;5095658;28;20449;-74
2021/10/07 11:55:34;;;;;;;19.37;13.40;;;;;;;;;;5095751;28;20489;-75
2021/10/07 11:58:02;;;;;;;24.83;15.90;;;;;;;;;;5094853;28;20442;-76
2021/10/07 12:00:57;;;;;;;17.00;12.20;;;;;;;;;;5095167;28;20507;-75
2021/10/07 12:03:26;;;;;;;19.67;13.90;;;;;;;;;;5059062;28;21003;-75
2021/10/07 12:05:55;;;;;;;21.43;13.77;;;;;;;;;;5095058;28;20481;-74
2021/10/07 12:08:24;;;;;;;22.63;14.63;;;;;;;;;;5093218;28;20926;-74
2021/10/07 12:10:52;;;;;;;16.70;12.93;;;;;;;;;;5093974;28;20962;-74
2021/10/07 12:13:20;;;;;;;20.13;14.33;;;;;;;;;;5094078;28;20962;-75
2021/10/07 12:15:52;;;;;;;18.83;13.77;;;;;;;;;;5094307;28;20474;-74
2021/10/07 12:18:20;;;;;;;22.10;13.93;;;;;;;;;;5094389;28;20443;-74
2021/10/07 12:21:02;;;;;;;20.60;12.97;;;;;;;;;;5094513;28;20432;-75
2021/10/07 12:23:30;;;;;;;21.47;13.43;;;;;;;;;;5094590;28;20537;-76
2021/10/07 12:25:59;;;;;;;20.13;13.53;;;;;;;;;;5093858;28;20991;-74
2021/10/07 12:28:27;;;;;;;21.07;14.63;;;;;;;;;;5094337;28;20533;-75
2021/10/07 12:30:57;;;;;;;21.57;14.00;;;;;;;;;;5084359;28;20483;-75
2021/10/07 12:33:26;;;;;;;20.17;14.17;;;;;;;;;;5073518;28;20529;-74
2021/10/07 12:35:58;;;;;;;16.63;12.57;;;;;;;;;;5073147;28;20470;-77
2021/10/07 12:38:27;;;;;;;19.30;13.43;;;;;;;;;;5073263;28;20865;-77
2021/10/07 12:40:55;;;;;;;22.13;14.03;;;;;;;;;;5073282;28;20858;-76
2021/10/07 12:43:22;;;;;;;20.80;13.53;;;;;;;;;;5073328;28;20488;-75
2021/10/07 12:46:06;;;;;;;18.90;12.67;;;;;;;;;;5073046;28;21022;-76
2021/10/07 12:48:50;;;;;;;20.63;12.90;;;;;;;;;;5071670;28;20518;-74
2021/10/07 12:51:18;;;;;;;19.50;13.93;;;;;;;;;;5072103;28;20794;-74
2021/10/07 12:53:47;;;;;;;19.53;13.50;;;;;;;;;;5072676;28;20435;-75
2021/10/07 12:56:16;;;;;;;18.13;12.57;;;;;;;;;;5072864;28;20582;-74
2021/10/07 12:58:47;;;;;;;20.03;13.73;;;;;;;;;;5072919;28;20524;-75
2021/10/07 13:01:15;;;;;;;19.40;13.90;;;;;;;;;;5072632;28;20932;-75
2021/10/07 13:03:42;;;;;;;16.50;11.87;;;;;;;;;;5072656;28;20499;-76
2021/10/07 13:06:25;;;;;;;22.03;13.70;;;;;;;;;;5073268;28;20707;-76
2021/10/07 13:08:53;;;;;;;21.70;12.63;;;;;;;;;;5070958;28;20775;-74
2021/10/07 13:11:20;;;;;;;15.93;11.53;;;;;;;;;;5073000;28;20534;-75
2021/10/07 13:13:48;;;;;;;15.53;11.10;;;;;;;;;;5070476;28;20788;-74
2021/10/07 13:16:17;;;;;;;19.77;13.20;;;;;;;;;;5072857;28;20469;-75
2021/10/07 13:18:45;;;;;;;14.83;11.50;;;;;;;;;;5072817;28;20438;-75
2021/10/07 13:21:12;;;;;;;20.27;13.23;;;;;;;;;;5072798;28;20444;-74
2021/10/07 13:23:39;;;;;;;15.40;11.37;;;;;;;;;;5072778;28;20869;-74
2021/10/07 13:26:09;;;;;;;15.27;11.40;;;;;;;;;;5072377;28;20524;-75
2021/10/07 13:28:36;;;;;;;16.20;12.27;;;;;;;;;;5071752;28;20468;-75
2021/10/07 13:31:03;;;;;;;16.63;12.60;;;;;;;;;;5072778;28;20439;-75
2021/10/07 13:33:31;;;;;;;15.33;11.47;;;;;;;;;;5072133;28;20930;-75
2021/10/07 13:35:58;;;;;;;18.63;12.40;;;;;;;;;;5072632;28;20562;-75
2021/10/07 13:38:25;;;;;;;16.07;11.70;;;;;;;;;;5072984;28;20437;-75
2021/10/07 13:40:53;;;;;;;17.07;11.97;;;;;;;;;;5072714;28;20443;-76
2021/10/07 13:43:22;;;;;;;14.80;11.87;;;;;;;;;;5072041;28;20435;-75
2021/10/07 13:45:49;;;;;;;19.20;11.10;;;;;;;;;;5072984;28;20436;-75
2021/10/07 13:48:18;;;;;;;14.97;11.23;;;;;;;;;;5071990;28;20449;-74
2021/10/07 13:50:45;;;;;;;13.60;11.20;;;;;;;;;;5072561;28;20439;-76
2021/10/07 13:53:12;;;;;;;14.70;11.10;;;;;;;;;;5072868;28;20471;-76
2021/10/07 13:55:40;;;;;;;19.33;12.10;;;;;;;;;;5072027;28;20483;-76
2021/10/07 13:58:08;;;;;;;15.50;10.97;;;;;;;;;;5072401;28;20780;-75
2021/10/07 14:00:38;;;;;;;12.90;11.30;;;;;;;;;;5072303;28;20490;-76
2021/10/07 14:03:05;;;;;;;13.20;10.33;;;;;;;;;;5072987;28;20940;-77
2021/10/07 14:05:35;;;;;;;14.93;10.40;;;;;;;;;;5076306;28;20473;-75
2021/10/07 14:08:02;;;;;;;13.97;10.10;;;;;;;;;;5076454;28;20959;-75
2021/10/07 14:10:31;;;;;;;15.80;11.97;;;;;;;;;;5076242;28;20441;-76
2021/10/07 14:12:58;;;;;;;14.87;11.97;;;;;;;;;;5076285;28;20432;-74
2021/10/07 14:15:26;;;;;;;12.37;11.07;;;;;;;;;;5076033;28;20563;-77
2021/10/07 14:17:56;;;;;;;13.03;11.20;;;;;;;;;;5075812;28;20769;-75
2021/10/07 14:20:23;;;;;;;14.00;11.93;;;;;;;;;;5076085;28;20438;-75
2021/10/07 14:22:50;;;;;;;12.77;10.30;;;;;;;;;;5076154;28;20549;-75
2021/10/07 14:25:20;;;;;;;13.37;10.77;;;;;;;;;;5095252;28;20465;-75